sensor_id;sensor_type;location;lat;lon;timestamp;P1;durP1;ratioP1;P2;durP2;ratioP2
36725;SDS011;44936;52.086;5.150;2023-06-22T00:01:57;2.80;;;1.67;;
36725;SDS011;44936;52.086;5.150;2023-06-22T00:04:23;3.25;;;1.70;;
36725;SDS011;44936;52.086;5.150;2023-06-22T00:06:49;2.15;;;1.50;;
36725;SDS011;44936;52.086;5.150;2023-06-22T00:09:15;3.67;;;1.75;;
36725;SDS011;44936;52.086;5.150;2023-06-22T00:11:40;4.75;;;1.90;;
36725;SDS011;44936;52.086;5.150;2023-06-22T00:14:05;4.13;;;2.20;;
36725;SDS011;44936;52.086;5.150;2023-06-22T00:16:34;6.82;;;2.85;;
36725;SDS011;44936;52.086;5.150;2023-06-22T00:19:00;5.25;;;1.70;;
36725;SDS011;44936;52.086;5.150;2023-06-22T00:21:26;4.28;;;1.80;;
36725;SDS011;44936;52.086;5.150;2023-06-22T00:23:52;3.90;;;2.10;;
36725;SDS011;44936;52.086;5.150;2023-06-22T00:26:17;3.95;;;1.80;;
36725;SDS011;44936;52.086;5.150;2023-06-22T00:28:43;5.78;;;2.15;;
36725;SDS011;44936;52.086;5.150;2023-06-22T00:31:08;5.68;;;2.20;;
36725;SDS011;44936;52.086;5.150;2023-06-22T00:33:33;4.68;;;2.00;;
36725;SDS011;44936;52.086;5.150;2023-06-22T00:35:59;4.25;;;1.95;;
36725;SDS011;44936;52.086;5.150;2023-06-22T00:38:24;4.95;;;2.10;;
36725;SDS011;44936;52.086;5.150;2023-06-22T00:40:49;5.25;;;2.30;;
36725;SDS011;44936;52.086;5.150;2023-06-22T00:43:15;5.00;;;2.08;;
36725;SDS011;44936;52.086;5.150;2023-06-22T00:45:40;7.78;;;2.20;;
36725;SDS011;44936;52.086;5.150;2023-06-22T00:48:06;5.45;;;2.58;;
36725;SDS011;44936;52.086;5.150;2023-06-22T00:50:32;4.55;;;2.15;;
36725;SDS011;44936;52.086;5.150;2023-06-22T00:53:02;6.32;;;2.33;;
36725;SDS011;44936;52.086;5.150;2023-06-22T00:55:33;5.53;;;2.20;;
36725;SDS011;44936;52.086;5.150;2023-06-22T00:58:02;4.75;;;2.13;;
36725;SDS011;44936;52.086;5.150;2023-06-22T01:00:30;5.63;;;2.17;;
36725;SDS011;44936;52.086;5.150;2023-06-22T01:02:57;7.45;;;2.38;;
36725;SDS011;44936;52.086;5.150;2023-06-22T01:05:23;4.03;;;2.00;;
36725;SDS011;44936;52.086;5.150;2023-06-22T01:07:58;4.15;;;1.92;;
36725;SDS011;44936;52.086;5.150;2023-06-22T01:13:04;3.80;;;2.08;;
36725;SDS011;44936;52.086;5.150;2023-06-22T01:16:00;5.78;;;2.17;;
36725;SDS011;44936;52.086;5.150;2023-06-22T01:18:29;4.18;;;2.03;;
36725;SDS011;44936;52.086;5.150;2023-06-22T01:20:56;5.90;;;2.50;;
36725;SDS011;44936;52.086;5.150;2023-06-22T01:28:43;3.58;;;2.00;;
36725;SDS011;44936;52.086;5.150;2023-06-22T01:31:12;3.85;;;1.75;;
36725;SDS011;44936;52.086;5.150;2023-06-22T01:33:41;7.05;;;2.25;;
36725;SDS011;44936;52.086;5.150;2023-06-22T01:36:10;5.57;;;2.22;;
36725;SDS011;44936;52.086;5.150;2023-06-22T01:38:36;5.88;;;2.10;;
36725;SDS011;44936;52.086;5.150;2023-06-22T01:41:06;5.13;;;2.13;;
36725;SDS011;44936;52.086;5.150;2023-06-22T01:43:31;3.45;;;1.73;;
36725;SDS011;44936;52.086;5.150;2023-06-22T01:45:58;5.00;;;2.33;;
36725;SDS011;44936;52.086;5.150;2023-06-22T01:48:26;4.25;;;2.40;;
36725;SDS011;44936;52.086;5.150;2023-06-22T01:50:52;4.90;;;1.95;;
36725;SDS011;44936;52.086;5.150;2023-06-22T01:53:22;3.47;;;2.10;;
36725;SDS011;44936;52.086;5.150;2023-06-22T01:55:48;5.00;;;2.30;;
36725;SDS011;44936;52.086;5.150;2023-06-22T01:58:14;4.25;;;2.30;;
36725;SDS011;44936;52.086;5.150;2023-06-22T02:00:40;8.80;;;2.47;;
36725;SDS011;44936;52.086;5.150;2023-06-22T02:03:19;5.30;;;2.70;;
36725;SDS011;44936;52.086;5.150;2023-06-22T02:05:55;4.57;;;2.33;;
36725;SDS011;44936;52.086;5.150;2023-06-22T02:08:47;6.13;;;2.80;;
36725;SDS011;44936;52.086;5.150;2023-06-22T02:11:22;6.40;;;2.30;;
36725;SDS011;44936;52.086;5.150;2023-06-22T02:13:49;4.68;;;2.13;;
36725;SDS011;44936;52.086;5.150;2023-06-22T02:16:16;6.90;;;2.75;;
36725;SDS011;44936;52.086;5.150;2023-06-22T02:18:49;5.45;;;2.33;;
36725;SDS011;44936;52.086;5.150;2023-06-22T02:21:16;5.68;;;2.35;;
36725;SDS011;44936;52.086;5.150;2023-06-22T02:23:42;4.97;;;2.45;;
36725;SDS011;44936;52.086;5.150;2023-06-22T02:26:07;4.80;;;2.40;;
36725;SDS011;44936;52.086;5.150;2023-06-22T02:28:33;6.88;;;2.40;;
36725;SDS011;44936;52.086;5.150;2023-06-22T02:30:58;7.78;;;3.00;;
36725;SDS011;44936;52.086;5.150;2023-06-22T02:33:24;7.07;;;2.75;;
36725;SDS011;44936;52.086;5.150;2023-06-22T02:35:51;5.70;;;2.50;;
36725;SDS011;44936;52.086;5.150;2023-06-22T02:38:18;6.35;;;3.10;;
36725;SDS011;44936;52.086;5.150;2023-06-22T02:40:44;5.35;;;2.25;;
36725;SDS011;44936;52.086;5.150;2023-06-22T02:43:10;7.63;;;2.70;;
36725;SDS011;44936;52.086;5.150;2023-06-22T02:45:35;6.20;;;2.78;;
36725;SDS011;44936;52.086;5.150;2023-06-22T02:48:00;5.65;;;2.55;;
36725;SDS011;44936;52.086;5.150;2023-06-22T02:50:26;6.88;;;2.88;;
36725;SDS011;44936;52.086;5.150;2023-06-22T02:52:51;5.97;;;2.50;;
36725;SDS011;44936;52.086;5.150;2023-06-22T02:55:17;6.07;;;3.00;;
36725;SDS011;44936;52.086;5.150;2023-06-22T02:57:42;5.07;;;3.08;;
36725;SDS011;44936;52.086;5.150;2023-06-22T03:00:09;8.05;;;3.30;;
36725;SDS011;44936;52.086;5.150;2023-06-22T03:02:45;5.68;;;2.65;;
36725;SDS011;44936;52.086;5.150;2023-06-22T03:05:11;6.93;;;2.38;;
36725;SDS011;44936;52.086;5.150;2023-06-22T03:07:38;7.68;;;3.13;;
36725;SDS011;44936;52.086;5.150;2023-06-22T03:10:05;6.70;;;2.92;;
36725;SDS011;44936;52.086;5.150;2023-06-22T03:12:31;8.20;;;2.90;;
36725;SDS011;44936;52.086;5.150;2023-06-22T03:14:56;8.30;;;3.10;;
36725;SDS011;44936;52.086;5.150;2023-06-22T03:17:21;6.93;;;2.95;;
36725;SDS011;44936;52.086;5.150;2023-06-22T03:19:47;5.82;;;2.85;;
36725;SDS011;44936;52.086;5.150;2023-06-22T03:22:12;7.88;;;2.85;;
36725;SDS011;44936;52.086;5.150;2023-06-22T03:24:40;7.07;;;3.05;;
36725;SDS011;44936;52.086;5.150;2023-06-22T03:27:05;6.80;;;3.30;;
36725;SDS011;44936;52.086;5.150;2023-06-22T03:29:31;7.47;;;3.35;;
36725;SDS011;44936;52.086;5.150;2023-06-22T03:31:56;7.07;;;3.35;;
36725;SDS011;44936;52.086;5.150;2023-06-22T03:34:21;7.20;;;3.30;;
36725;SDS011;44936;52.086;5.150;2023-06-22T03:36:47;7.53;;;3.53;;
36725;SDS011;44936;52.086;5.150;2023-06-22T03:39:12;10.75;;;3.50;;
36725;SDS011;44936;52.086;5.150;2023-06-22T03:41:38;5.63;;;2.83;;
36725;SDS011;44936;52.086;5.150;2023-06-22T03:44:03;7.22;;;3.63;;
36725;SDS011;44936;52.086;5.150;2023-06-22T03:46:29;7.75;;;4.22;;
36725;SDS011;44936;52.086;5.150;2023-06-22T03:48:55;10.30;;;3.70;;
36725;SDS011;44936;52.086;5.150;2023-06-22T03:51:20;7.32;;;3.33;;
36725;SDS011;44936;52.086;5.150;2023-06-22T03:53:46;7.38;;;3.53;;
36725;SDS011;44936;52.086;5.150;2023-06-22T03:56:11;8.75;;;4.05;;
36725;SDS011;44936;52.086;5.150;2023-06-22T03:58:36;7.55;;;3.25;;
36725;SDS011;44936;52.086;5.150;2023-06-22T04:01:07;5.75;;;2.75;;
36725;SDS011;44936;52.086;5.150;2023-06-22T04:03:36;7.55;;;2.90;;
36725;SDS011;44936;52.086;5.150;2023-06-22T04:06:02;7.70;;;3.40;;
36725;SDS011;44936;52.086;5.150;2023-06-22T04:08:28;10.60;;;3.55;;
36725;SDS011;44936;52.086;5.150;2023-06-22T04:10:53;9.95;;;3.60;;
36725;SDS011;44936;52.086;5.150;2023-06-22T04:13:19;9.52;;;3.28;;
36725;SDS011;44936;52.086;5.150;2023-06-22T04:15:44;8.50;;;3.40;;
36725;SDS011;44936;52.086;5.150;2023-06-22T04:18:10;6.85;;;3.10;;
36725;SDS011;44936;52.086;5.150;2023-06-22T04:20:35;6.90;;;3.15;;
36725;SDS011;44936;52.086;5.150;2023-06-22T04:23:01;7.38;;;3.28;;
36725;SDS011;44936;52.086;5.150;2023-06-22T04:25:26;8.45;;;3.17;;
36725;SDS011;44936;52.086;5.150;2023-06-22T04:27:52;9.60;;;3.60;;
36725;SDS011;44936;52.086;5.150;2023-06-22T04:30:19;6.78;;;3.03;;
36725;SDS011;44936;52.086;5.150;2023-06-22T04:32:47;8.07;;;3.38;;
36725;SDS011;44936;52.086;5.150;2023-06-22T04:35:21;9.38;;;3.22;;
36725;SDS011;44936;52.086;5.150;2023-06-22T04:37:47;8.02;;;2.95;;
36725;SDS011;44936;52.086;5.150;2023-06-22T04:40:14;11.90;;;3.55;;
36725;SDS011;44936;52.086;5.150;2023-06-22T04:42:40;8.65;;;3.40;;
36725;SDS011;44936;52.086;5.150;2023-06-22T04:45:05;6.82;;;3.30;;
36725;SDS011;44936;52.086;5.150;2023-06-22T04:47:31;6.03;;;3.03;;
36725;SDS011;44936;52.086;5.150;2023-06-22T04:49:56;7.80;;;3.10;;
36725;SDS011;44936;52.086;5.150;2023-06-22T04:52:22;7.70;;;3.33;;
36725;SDS011;44936;52.086;5.150;2023-06-22T04:54:47;5.63;;;3.10;;
36725;SDS011;44936;52.086;5.150;2023-06-22T04:57:13;6.97;;;3.00;;
36725;SDS011;44936;52.086;5.150;2023-06-22T04:59:39;8.60;;;3.30;;
36725;SDS011;44936;52.086;5.150;2023-06-22T05:02:06;7.45;;;3.55;;
36725;SDS011;44936;52.086;5.150;2023-06-22T05:04:32;7.95;;;3.25;;
36725;SDS011;44936;52.086;5.150;2023-06-22T05:06:58;6.53;;;3.30;;
36725;SDS011;44936;52.086;5.150;2023-06-22T05:09:27;8.30;;;3.40;;
36725;SDS011;44936;52.086;5.150;2023-06-22T05:11:53;8.80;;;3.40;;
36725;SDS011;44936;52.086;5.150;2023-06-22T05:14:25;9.50;;;3.67;;
36725;SDS011;44936;52.086;5.150;2023-06-22T05:16:50;7.68;;;3.28;;
36725;SDS011;44936;52.086;5.150;2023-06-22T05:19:17;11.25;;;3.35;;
36725;SDS011;44936;52.086;5.150;2023-06-22T05:21:42;5.75;;;2.72;;
36725;SDS011;44936;52.086;5.150;2023-06-22T05:24:08;5.72;;;2.88;;
36725;SDS011;44936;52.086;5.150;2023-06-22T05:26:33;7.53;;;3.38;;
36725;SDS011;44936;52.086;5.150;2023-06-22T05:29:00;10.25;;;3.58;;
36725;SDS011;44936;52.086;5.150;2023-06-22T05:31:27;9.48;;;3.75;;
36725;SDS011;44936;52.086;5.150;2023-06-22T05:33:54;9.77;;;3.65;;
36725;SDS011;44936;52.086;5.150;2023-06-22T05:36:20;7.10;;;3.70;;
36725;SDS011;44936;52.086;5.150;2023-06-22T05:38:52;10.05;;;3.40;;
36725;SDS011;44936;52.086;5.150;2023-06-22T05:41:17;9.63;;;4.00;;
36725;SDS011;44936;52.086;5.150;2023-06-22T05:43:43;6.68;;;3.58;;
36725;SDS011;44936;52.086;5.150;2023-06-22T05:46:09;9.77;;;3.83;;
36725;SDS011;44936;52.086;5.150;2023-06-22T05:48:34;9.45;;;4.15;;
36725;SDS011;44936;52.086;5.150;2023-06-22T05:51:00;9.35;;;3.90;;
36725;SDS011;44936;52.086;5.150;2023-06-22T05:53:25;8.82;;;3.83;;
36725;SDS011;44936;52.086;5.150;2023-06-22T05:55:51;7.63;;;3.90;;
36725;SDS011;44936;52.086;5.150;2023-06-22T05:58:16;9.18;;;4.07;;
36725;SDS011;44936;52.086;5.150;2023-06-22T06:00:42;8.18;;;3.67;;
36725;SDS011;44936;52.086;5.150;2023-06-22T06:03:08;8.65;;;4.45;;
36725;SDS011;44936;52.086;5.150;2023-06-22T06:05:34;7.30;;;3.67;;
36725;SDS011;44936;52.086;5.150;2023-06-22T06:07:59;7.57;;;3.58;;
36725;SDS011;44936;52.086;5.150;2023-06-22T06:10:26;9.15;;;4.30;;
36725;SDS011;44936;52.086;5.150;2023-06-22T06:12:52;10.38;;;3.92;;
36725;SDS011;44936;52.086;5.150;2023-06-22T06:15:18;11.80;;;4.57;;
36725;SDS011;44936;52.086;5.150;2023-06-22T06:17:50;13.35;;;4.50;;
36725;SDS011;44936;52.086;5.150;2023-06-22T06:20:24;9.30;;;4.28;;
36725;SDS011;44936;52.086;5.150;2023-06-22T06:22:51;12.40;;;4.85;;
36725;SDS011;44936;52.086;5.150;2023-06-22T06:25:17;10.98;;;4.80;;
36725;SDS011;44936;52.086;5.150;2023-06-22T06:27:43;8.95;;;4.53;;
36725;SDS011;44936;52.086;5.150;2023-06-22T06:30:10;10.68;;;4.68;;
36725;SDS011;44936;52.086;5.150;2023-06-22T06:32:36;8.30;;;3.53;;
36725;SDS011;44936;52.086;5.150;2023-06-22T06:35:03;11.25;;;5.05;;
36725;SDS011;44936;52.086;5.150;2023-06-22T06:37:36;9.55;;;4.50;;
36725;SDS011;44936;52.086;5.150;2023-06-22T06:40:03;10.23;;;3.88;;
36725;SDS011;44936;52.086;5.150;2023-06-22T06:45:07;10.57;;;3.85;;
36725;SDS011;44936;52.086;5.150;2023-06-22T06:47:33;10.20;;;4.40;;
36725;SDS011;44936;52.086;5.150;2023-06-22T06:49:58;11.88;;;4.07;;
36725;SDS011;44936;52.086;5.150;2023-06-22T06:52:27;9.48;;;4.20;;
36725;SDS011;44936;52.086;5.150;2023-06-22T06:54:53;10.88;;;3.97;;
36725;SDS011;44936;52.086;5.150;2023-06-22T06:57:19;11.05;;;4.07;;
36725;SDS011;44936;52.086;5.150;2023-06-22T06:59:45;10.65;;;5.18;;
36725;SDS011;44936;52.086;5.150;2023-06-22T07:02:11;10.70;;;3.75;;
36725;SDS011;44936;52.086;5.150;2023-06-22T07:04:36;9.50;;;3.97;;
36725;SDS011;44936;52.086;5.150;2023-06-22T07:07:02;7.03;;;3.42;;
36725;SDS011;44936;52.086;5.150;2023-06-22T07:09:28;9.70;;;3.92;;
36725;SDS011;44936;52.086;5.150;2023-06-22T07:11:53;8.75;;;4.13;;
36725;SDS011;44936;52.086;5.150;2023-06-22T07:14:21;9.15;;;3.80;;
36725;SDS011;44936;52.086;5.150;2023-06-22T07:16:47;7.85;;;4.07;;
36725;SDS011;44936;52.086;5.150;2023-06-22T07:19:12;10.20;;;3.58;;
36725;SDS011;44936;52.086;5.150;2023-06-22T07:21:38;10.65;;;3.72;;
36725;SDS011;44936;52.086;5.150;2023-06-22T07:24:04;10.65;;;4.13;;
36725;SDS011;44936;52.086;5.150;2023-06-22T07:26:33;10.25;;;3.70;;
36725;SDS011;44936;52.086;5.150;2023-06-22T07:28:59;9.48;;;3.55;;
36725;SDS011;44936;52.086;5.150;2023-06-22T07:31:25;8.15;;;4.32;;
36725;SDS011;44936;52.086;5.150;2023-06-22T07:33:51;8.10;;;3.50;;
36725;SDS011;44936;52.086;5.150;2023-06-22T07:36:17;9.48;;;4.05;;
36725;SDS011;44936;52.086;5.150;2023-06-22T07:38:45;7.28;;;3.90;;
36725;SDS011;44936;52.086;5.150;2023-06-22T07:41:11;7.47;;;3.85;;
36725;SDS011;44936;52.086;5.150;2023-06-22T07:43:36;7.32;;;3.83;;
36725;SDS011;44936;52.086;5.150;2023-06-22T07:46:05;10.07;;;3.58;;
36725;SDS011;44936;52.086;5.150;2023-06-22T07:48:31;9.90;;;4.82;;
36725;SDS011;44936;52.086;5.150;2023-06-22T07:50:56;7.82;;;4.05;;
36725;SDS011;44936;52.086;5.150;2023-06-22T07:53:22;6.97;;;3.80;;
36725;SDS011;44936;52.086;5.150;2023-06-22T07:55:48;7.97;;;3.90;;
36725;SDS011;44936;52.086;5.150;2023-06-22T07:58:16;10.05;;;4.30;;
36725;SDS011;44936;52.086;5.150;2023-06-22T08:00:46;8.32;;;3.38;;
36725;SDS011;44936;52.086;5.150;2023-06-22T08:03:12;6.55;;;3.45;;
36725;SDS011;44936;52.086;5.150;2023-06-22T08:05:38;8.93;;;3.42;;
36725;SDS011;44936;52.086;5.150;2023-06-22T08:08:04;8.68;;;4.00;;
36725;SDS011;44936;52.086;5.150;2023-06-22T08:10:32;7.70;;;3.33;;
36725;SDS011;44936;52.086;5.150;2023-06-22T08:12:57;8.55;;;3.65;;
36725;SDS011;44936;52.086;5.150;2023-06-22T08:15:23;8.48;;;4.00;;
36725;SDS011;44936;52.086;5.150;2023-06-22T08:17:52;6.93;;;2.63;;
36725;SDS011;44936;52.086;5.150;2023-06-22T08:20:17;5.93;;;3.38;;
36725;SDS011;44936;52.086;5.150;2023-06-22T08:22:43;6.82;;;3.00;;
36725;SDS011;44936;52.086;5.150;2023-06-22T08:25:09;6.57;;;2.55;;
36725;SDS011;44936;52.086;5.150;2023-06-22T08:27:35;5.20;;;2.70;;
36725;SDS011;44936;52.086;5.150;2023-06-22T08:30:01;5.05;;;2.47;;
36725;SDS011;44936;52.086;5.150;2023-06-22T08:32:28;4.60;;;2.67;;
36725;SDS011;44936;52.086;5.150;2023-06-22T08:34:54;4.45;;;2.15;;
36725;SDS011;44936;52.086;5.150;2023-06-22T08:37:19;5.45;;;2.53;;
36725;SDS011;44936;52.086;5.150;2023-06-22T08:39:45;6.72;;;2.67;;
36725;SDS011;44936;52.086;5.150;2023-06-22T08:42:11;9.73;;;3.33;;
36725;SDS011;44936;52.086;5.150;2023-06-22T08:44:36;6.13;;;2.67;;
36725;SDS011;44936;52.086;5.150;2023-06-22T08:47:02;5.65;;;2.40;;
36725;SDS011;44936;52.086;5.150;2023-06-22T08:49:28;4.72;;;2.53;;
36725;SDS011;44936;52.086;5.150;2023-06-22T08:51:54;3.47;;;2.17;;
36725;SDS011;44936;52.086;5.150;2023-06-22T08:54:21;10.10;;;1.95;;
36725;SDS011;44936;52.086;5.150;2023-06-22T08:56:46;2.90;;;1.80;;
36725;SDS011;44936;52.086;5.150;2023-06-22T08:59:11;4.15;;;2.00;;
36725;SDS011;44936;52.086;5.150;2023-06-22T09:01:37;3.75;;;1.50;;
36725;SDS011;44936;52.086;5.150;2023-06-22T09:04:02;2.95;;;1.42;;
36725;SDS011;44936;52.086;5.150;2023-06-22T09:06:31;3.55;;;1.58;;
36725;SDS011;44936;52.086;5.150;2023-06-22T09:08:57;1.65;;;1.30;;
36725;SDS011;44936;52.086;5.150;2023-06-22T09:11:24;3.05;;;1.65;;
36725;SDS011;44936;52.086;5.150;2023-06-22T09:13:50;2.35;;;1.30;;
36725;SDS011;44936;52.086;5.150;2023-06-22T09:16:17;3.15;;;1.58;;
36725;SDS011;44936;52.086;5.150;2023-06-22T09:18:42;3.67;;;1.33;;
36725;SDS011;44936;52.086;5.150;2023-06-22T09:21:11;4.68;;;2.03;;
36725;SDS011;44936;52.086;5.150;2023-06-22T09:23:36;3.60;;;1.83;;
36725;SDS011;44936;52.086;5.150;2023-06-22T09:26:02;3.72;;;1.77;;
36725;SDS011;44936;52.086;5.150;2023-06-22T09:28:29;3.95;;;1.67;;
36725;SDS011;44936;52.086;5.150;2023-06-22T09:30:54;3.45;;;1.88;;
36725;SDS011;44936;52.086;5.150;2023-06-22T09:33:24;3.15;;;2.17;;
36725;SDS011;44936;52.086;5.150;2023-06-22T09:35:50;5.38;;;1.90;;
36725;SDS011;44936;52.086;5.150;2023-06-22T09:38:16;3.80;;;2.25;;
36725;SDS011;44936;52.086;5.150;2023-06-22T09:40:41;2.92;;;1.80;;
36725;SDS011;44936;52.086;5.150;2023-06-22T09:43:07;5.03;;;1.75;;
36725;SDS011;44936;52.086;5.150;2023-06-22T09:45:32;3.50;;;1.90;;
36725;SDS011;44936;52.086;5.150;2023-06-22T09:47:58;2.30;;;1.33;;
36725;SDS011;44936;52.086;5.150;2023-06-22T09:50:24;4.25;;;2.13;;
36725;SDS011;44936;52.086;5.150;2023-06-22T09:52:49;2.55;;;1.70;;
36725;SDS011;44936;52.086;5.150;2023-06-22T09:55:19;2.08;;;1.40;;
36725;SDS011;44936;52.086;5.150;2023-06-22T09:57:47;3.28;;;1.50;;
36725;SDS011;44936;52.086;5.150;2023-06-22T10:00:13;2.45;;;1.27;;
36725;SDS011;44936;52.086;5.150;2023-06-22T10:02:43;2.55;;;1.17;;
36725;SDS011;44936;52.086;5.150;2023-06-22T10:05:09;2.38;;;1.30;;
36725;SDS011;44936;52.086;5.150;2023-06-22T10:07:35;6.18;;;1.60;;
36725;SDS011;44936;52.086;5.150;2023-06-22T10:10:05;3.20;;;1.48;;
36725;SDS011;44936;52.086;5.150;2023-06-22T10:12:31;2.38;;;1.40;;
36725;SDS011;44936;52.086;5.150;2023-06-22T10:14:56;1.25;;;0.80;;
36725;SDS011;44936;52.086;5.150;2023-06-22T10:17:22;2.60;;;1.40;;
36725;SDS011;44936;52.086;5.150;2023-06-22T10:19:47;2.53;;;1.50;;
36725;SDS011;44936;52.086;5.150;2023-06-22T10:22:12;2.60;;;1.20;;
36725;SDS011;44936;52.086;5.150;2023-06-22T10:24:38;1.92;;;1.35;;
36725;SDS011;44936;52.086;5.150;2023-06-22T10:27:09;2.65;;;1.45;;
36725;SDS011;44936;52.086;5.150;2023-06-22T10:29:35;4.15;;;1.58;;
36725;SDS011;44936;52.086;5.150;2023-06-22T10:32:00;2.92;;;1.40;;
36725;SDS011;44936;52.086;5.150;2023-06-22T10:34:27;3.58;;;1.48;;
36725;SDS011;44936;52.086;5.150;2023-06-22T10:36:52;4.55;;;1.60;;
36725;SDS011;44936;52.086;5.150;2023-06-22T10:39:18;2.58;;;1.48;;
36725;SDS011;44936;52.086;5.150;2023-06-22T10:41:46;3.30;;;1.85;;
36725;SDS011;44936;52.086;5.150;2023-06-22T10:44:11;3.80;;;1.65;;
36725;SDS011;44936;52.086;5.150;2023-06-22T10:46:37;3.80;;;2.03;;
36725;SDS011;44936;52.086;5.150;2023-06-22T10:49:03;5.60;;;1.63;;
36725;SDS011;44936;52.086;5.150;2023-06-22T10:51:28;2.95;;;1.77;;
36725;SDS011;44936;52.086;5.150;2023-06-22T10:53:54;2.28;;;1.45;;
36725;SDS011;44936;52.086;5.150;2023-06-22T10:56:19;3.10;;;1.85;;
36725;SDS011;44936;52.086;5.150;2023-06-22T10:58:45;3.15;;;1.70;;
36725;SDS011;44936;52.086;5.150;2023-06-22T11:01:11;3.45;;;1.67;;
36725;SDS011;44936;52.086;5.150;2023-06-22T11:03:36;6.20;;;1.95;;
36725;SDS011;44936;52.086;5.150;2023-06-22T11:06:01;2.83;;;1.83;;
36725;SDS011;44936;52.086;5.150;2023-06-22T11:08:27;2.40;;;1.50;;
36725;SDS011;44936;52.086;5.150;2023-06-22T11:10:52;3.33;;;1.90;;
36725;SDS011;44936;52.086;5.150;2023-06-22T11:13:18;3.42;;;1.90;;
36725;SDS011;44936;52.086;5.150;2023-06-22T11:15:43;3.67;;;2.00;;
36725;SDS011;44936;52.086;5.150;2023-06-22T11:18:08;2.33;;;1.60;;
36725;SDS011;44936;52.086;5.150;2023-06-22T11:20:34;3.63;;;1.60;;
36725;SDS011;44936;52.086;5.150;2023-06-22T11:23:03;3.70;;;1.98;;
36725;SDS011;44936;52.086;5.150;2023-06-22T11:25:30;4.50;;;2.60;;
36725;SDS011;44936;52.086;5.150;2023-06-22T11:27:55;3.75;;;1.98;;
36725;SDS011;44936;52.086;5.150;2023-06-22T11:30:21;3.78;;;1.65;;
36725;SDS011;44936;52.086;5.150;2023-06-22T11:32:46;4.45;;;2.00;;
36725;SDS011;44936;52.086;5.150;2023-06-22T11:35:11;6.40;;;2.47;;
36725;SDS011;44936;52.086;5.150;2023-06-22T11:37:37;2.60;;;1.67;;
36725;SDS011;44936;52.086;5.150;2023-06-22T11:40:02;3.38;;;2.20;;
36725;SDS011;44936;52.086;5.150;2023-06-22T11:42:30;3.63;;;1.92;;
36725;SDS011;44936;52.086;5.150;2023-06-22T11:44:55;3.50;;;1.70;;
36725;SDS011;44936;52.086;5.150;2023-06-22T11:47:21;2.80;;;1.63;;
36725;SDS011;44936;52.086;5.150;2023-06-22T11:49:46;3.25;;;1.58;;
36725;SDS011;44936;52.086;5.150;2023-06-22T11:52:12;3.60;;;1.85;;
36725;SDS011;44936;52.086;5.150;2023-06-22T11:54:37;4.60;;;2.05;;
36725;SDS011;44936;52.086;5.150;2023-06-22T11:57:04;4.38;;;2.25;;
36725;SDS011;44936;52.086;5.150;2023-06-22T11:59:29;5.35;;;2.55;;
36725;SDS011;44936;52.086;5.150;2023-06-22T12:01:54;5.97;;;2.80;;
36725;SDS011;44936;52.086;5.150;2023-06-22T12:04:20;7.10;;;3.00;;
36725;SDS011;44936;52.086;5.150;2023-06-22T12:06:45;6.32;;;2.63;;
36725;SDS011;44936;52.086;5.150;2023-06-22T12:09:11;5.88;;;2.80;;
36725;SDS011;44936;52.086;5.150;2023-06-22T12:11:38;5.38;;;2.50;;
36725;SDS011;44936;52.086;5.150;2023-06-22T12:14:04;6.15;;;2.55;;
36725;SDS011;44936;52.086;5.150;2023-06-22T12:16:29;5.53;;;2.60;;
36725;SDS011;44936;52.086;5.150;2023-06-22T12:18:54;5.50;;;2.47;;
36725;SDS011;44936;52.086;5.150;2023-06-22T12:21:20;4.57;;;2.45;;
36725;SDS011;44936;52.086;5.150;2023-06-22T12:23:45;4.90;;;2.30;;
36725;SDS011;44936;52.086;5.150;2023-06-22T12:26:11;3.25;;;2.10;;
36725;SDS011;44936;52.086;5.150;2023-06-22T12:28:36;4.70;;;2.20;;
36725;SDS011;44936;52.086;5.150;2023-06-22T12:31:02;5.90;;;2.47;;
36725;SDS011;44936;52.086;5.150;2023-06-22T12:33:27;4.07;;;2.33;;
36725;SDS011;44936;52.086;5.150;2023-06-22T12:35:53;4.75;;;2.60;;
36725;SDS011;44936;52.086;5.150;2023-06-22T12:38:21;6.63;;;3.03;;
36725;SDS011;44936;52.086;5.150;2023-06-22T12:40:47;6.03;;;2.58;;
36725;SDS011;44936;52.086;5.150;2023-06-22T12:43:14;4.72;;;2.15;;
36725;SDS011;44936;52.086;5.150;2023-06-22T12:45:39;6.28;;;2.58;;
36725;SDS011;44936;52.086;5.150;2023-06-22T12:48:05;4.15;;;2.15;;
36725;SDS011;44936;52.086;5.150;2023-06-22T12:50:31;8.10;;;2.70;;
36725;SDS011;44936;52.086;5.150;2023-06-22T12:52:56;5.15;;;3.03;;
36725;SDS011;44936;52.086;5.150;2023-06-22T12:55:21;6.65;;;2.03;;
36725;SDS011;44936;52.086;5.150;2023-06-22T12:57:47;6.53;;;2.95;;
36725;SDS011;44936;52.086;5.150;2023-06-22T13:00:12;6.63;;;2.90;;
36725;SDS011;44936;52.086;5.150;2023-06-22T13:02:38;5.85;;;3.10;;
36725;SDS011;44936;52.086;5.150;2023-06-22T13:05:04;6.43;;;3.08;;
36725;SDS011;44936;52.086;5.150;2023-06-22T13:07:33;6.28;;;2.88;;
36725;SDS011;44936;52.086;5.150;2023-06-22T13:09:59;7.05;;;2.80;;
36725;SDS011;44936;52.086;5.150;2023-06-22T13:12:24;5.50;;;3.40;;
36725;SDS011;44936;52.086;5.150;2023-06-22T13:14:49;6.85;;;3.20;;
36725;SDS011;44936;52.086;5.150;2023-06-22T13:17:15;6.93;;;3.78;;
36725;SDS011;44936;52.086;5.150;2023-06-22T13:19:40;7.13;;;3.33;;
36725;SDS011;44936;52.086;5.150;2023-06-22T13:22:09;7.03;;;3.40;;
36725;SDS011;44936;52.086;5.150;2023-06-22T13:24:52;6.13;;;3.50;;
36725;SDS011;44936;52.086;5.150;2023-06-22T13:27:18;7.75;;;3.42;;
36725;SDS011;44936;52.086;5.150;2023-06-22T13:29:46;9.23;;;3.45;;
36725;SDS011;44936;52.086;5.150;2023-06-22T13:32:11;5.03;;;3.13;;
36725;SDS011;44936;52.086;5.150;2023-06-22T13:34:37;8.45;;;4.03;;
36725;SDS011;44936;52.086;5.150;2023-06-22T13:37:02;7.57;;;3.40;;
36725;SDS011;44936;52.086;5.150;2023-06-22T13:39:28;7.05;;;3.80;;
36725;SDS011;44936;52.086;5.150;2023-06-22T13:41:53;7.13;;;3.92;;
36725;SDS011;44936;52.086;5.150;2023-06-22T13:44:22;8.32;;;4.10;;
36725;SDS011;44936;52.086;5.150;2023-06-22T13:46:47;7.85;;;3.53;;
36725;SDS011;44936;52.086;5.150;2023-06-22T13:49:12;6.55;;;3.47;;
36725;SDS011;44936;52.086;5.150;2023-06-22T13:51:38;8.25;;;3.95;;
36725;SDS011;44936;52.086;5.150;2023-06-22T13:54:03;5.53;;;3.38;;
36725;SDS011;44936;52.086;5.150;2023-06-22T13:56:28;8.38;;;3.97;;
36725;SDS011;44936;52.086;5.150;2023-06-22T13:58:54;7.75;;;3.85;;
36725;SDS011;44936;52.086;5.150;2023-06-22T14:01:19;11.20;;;4.07;;
36725;SDS011;44936;52.086;5.150;2023-06-22T14:03:45;10.02;;;4.60;;
36725;SDS011;44936;52.086;5.150;2023-06-22T14:06:11;7.50;;;3.38;;
36725;SDS011;44936;52.086;5.150;2023-06-22T14:08:37;8.38;;;4.43;;
36725;SDS011;44936;52.086;5.150;2023-06-22T14:11:02;8.68;;;4.38;;
36725;SDS011;44936;52.086;5.150;2023-06-22T14:13:28;9.23;;;4.45;;
36725;SDS011;44936;52.086;5.150;2023-06-22T14:15:53;8.43;;;3.97;;
36725;SDS011;44936;52.086;5.150;2023-06-22T14:18:22;7.45;;;4.03;;
36725;SDS011;44936;52.086;5.150;2023-06-22T14:20:48;9.82;;;4.03;;
36725;SDS011;44936;52.086;5.150;2023-06-22T14:23:16;8.05;;;4.07;;
36725;SDS011;44936;52.086;5.150;2023-06-22T14:25:41;7.63;;;3.78;;
36725;SDS011;44936;52.086;5.150;2023-06-22T14:28:06;6.18;;;3.72;;
36725;SDS011;44936;52.086;5.150;2023-06-22T14:30:32;10.93;;;4.32;;
36725;SDS011;44936;52.086;5.150;2023-06-22T14:32:58;8.45;;;3.35;;
36725;SDS011;44936;52.086;5.150;2023-06-22T14:35:23;8.65;;;4.13;;
36725;SDS011;44936;52.086;5.150;2023-06-22T14:37:52;7.93;;;3.38;;
36725;SDS011;44936;52.086;5.150;2023-06-22T14:40:17;7.55;;;4.13;;
36725;SDS011;44936;52.086;5.150;2023-06-22T14:42:43;7.95;;;3.30;;
36725;SDS011;44936;52.086;5.150;2023-06-22T14:45:08;6.95;;;3.40;;
36725;SDS011;44936;52.086;5.150;2023-06-22T14:47:34;7.38;;;4.05;;
36725;SDS011;44936;52.086;5.150;2023-06-22T14:49:59;8.98;;;4.10;;
36725;SDS011;44936;52.086;5.150;2023-06-22T14:52:28;7.43;;;3.40;;